Time;durP1;ratioP1;P1;durP2;ratioP2;P2;SDS_P1;SDS_P2;PMS_P1;PMS_P2;Temp;Humidity;BMP_temperature;BMP_pressure;BME280_temperature;BME280_humidity;BME280_pressure;Samples;Min_cycle;Max_cycle;Signal;HPM_P1;HPM_P2
2021/04/11 00:00:47;;;;;;;1.60;1.50;;;12.10;84.80;;;;;;5054239;28;20474;-52
2021/04/11 00:03:15;;;;;;;2.80;1.30;;;12.20;85.20;;;;;;5054174;28;20444;-51
2021/04/11 00:05:43;;;;;;;1.60;1.50;;;12.10;85.20;;;;;;5071329;28;20446;-51
2021/04/11 00:08:12;;;;;;;2.90;2.00;;;12.00;85.50;;;;;;5073630;28;20447;-52
2021/04/11 00:10:42;;;;;;;1.70;1.60;;;12.00;85.80;;;;;;5073972;28;20533;-51
2021/04/11 00:13:12;;;;;;;1.77;1.57;;;11.80;86.40;;;;;;5054215;28;20439;-51
2021/04/11 00:15:39;;;;;;;2.70;1.60;;;11.70;87.70;;;;;;5054211;28;20444;-51
2021/04/11 00:18:06;;;;;;;1.83;1.67;;;11.60;88.20;;;;;;5064115;28;20794;-51
2021/04/11 00:20:32;;;;;;;3.97;1.97;;;11.50;88.10;;;;;;5072759;28;20890;-51
2021/04/11 00:23:00;;;;;;;3.00;1.40;;;11.50;88.30;;;;;;5052893;28;20806;-51
2021/04/11 00:25:30;;;;;;;1.80;1.70;;;11.50;88.30;;;;;;5053822;28;20452;-51
2021/04/11 00:27:57;;;;;;;2.67;1.57;;;11.40;88.60;;;;;;5053592;28;20945;-52
2021/04/11 00:30:24;;;;;;;2.40;2.13;;;11.40;88.80;;;;;;5053365;28;20483;-51
2021/04/11 00:32:53;;;;;;;5.37;2.40;;;11.60;88.30;;;;;;5067708;28;20446;-51
2021/04/11 00:35:19;;;;;;;2.20;2.00;;;11.50;88.30;;;;;;5065355;28;20454;-51
2021/04/11 00:37:46;;;;;;;3.30;1.80;;;11.60;88.50;;;;;;5054012;28;20451;-51
2021/04/11 00:40:20;;;;;;;2.00;1.90;;;11.60;88.80;;;;;;5053106;28;20892;-51
2021/04/11 00:42:52;;;;;;;2.30;1.83;;;11.60;88.80;;;;;;5053245;28;20455;-51
2021/04/11 00:45:28;;;;;;;2.43;2.10;;;11.60;88.90;;;;;;5064999;28;20500;-51
2021/04/11 00:47:55;;;;;;;2.00;1.90;;;11.60;88.80;;;;;;5071482;28;20508;-51
2021/04/11 00:50:23;;;;;;;3.93;2.10;;;11.70;88.80;;;;;;5073011;28;20470;-51
2021/04/11 00:52:50;;;;;;;2.77;2.10;;;11.40;89.20;;;;;;5058029;28;20863;-51
2021/04/11 00:55:19;;;;;;;3.10;2.50;;;11.40;90.00;;;;;;5053310;28;20452;-51
2021/04/11 00:57:46;;;;;;;3.67;2.20;;;11.40;89.30;;;;;;5056530;28;20458;-51
2021/04/11 01:00:15;;;;;;;2.70;1.90;;;11.40;89.40;;;;;;5072831;28;21003;-51
2021/04/11 01:02:42;;;;;;;2.90;2.60;;;11.40;89.10;;;;;;5071153;28;20447;-51
2021/04/11 01:05:14;;;;;;;3.83;2.40;;;11.70;88.80;;;;;;5071714;28;20460;-51
2021/04/11 01:07:43;;;;;;;2.50;2.30;;;11.50;89.00;;;;;;5071203;28;20451;-51
2021/04/11 01:10:13;;;;;;;2.50;2.30;;;11.40;89.20;;;;;;5072671;28;20481;-52
2021/04/11 01:12:40;;;;;;;2.30;2.10;;;11.30;89.40;;;;;;5070993;28;20457;-51
2021/04/11 01:15:14;;;;;;;2.17;2.00;;;11.30;89.80;;;;;;5061961;28;20451;-51
2021/04/11 01:17:40;;;;;;;3.37;2.20;;;11.30;89.50;;;;;;5070675;28;20501;-51
2021/04/11 01:20:09;;;;;;;5.23;4.00;;;11.50;88.60;;;;;;5055818;28;20947;-52
2021/04/11 01:22:44;;;;;;;1.77;1.67;;;11.50;88.50;;;;;;5052472;28;20447;-51
2021/04/11 01:25:17;;;;;;;2.53;2.00;;;11.40;89.40;;;;;;5060101;28;20454;-51
2021/04/11 01:27:43;;;;;;;1.83;1.73;;;11.40;89.30;;;;;;5072122;28;20450;-51
2021/04/11 01:30:13;;;;;;;2.40;2.20;;;11.40;89.20;;;;;;5068643;28;20485;-51
2021/04/11 01:32:43;;;;;;;3.33;1.90;;;11.30;89.30;;;;;;5081464;22;20495;-49
2021/04/11 01:35:12;;;;;;;2.10;1.93;;;11.30;90.00;;;;;;5050171;28;20459;-50
2021/04/11 01:37:40;;;;;;;1.90;1.70;;;11.20;90.20;;;;;;5047049;28;20440;-50
2021/04/11 01:40:11;;;;;;;1.67;1.57;;;11.30;90.30;;;;;;5052002;28;20478;-50
2021/04/11 01:42:38;;;;;;;1.90;1.73;;;11.10;90.30;;;;;;5051987;28;20964;-48
2021/04/11 01:45:06;;;;;;;2.43;1.87;;;11.00;90.60;;;;;;5052177;28;21055;-48
2021/04/11 01:47:35;;;;;;;1.70;1.60;;;11.00;90.70;;;;;;5050718;28;20450;-48
2021/04/11 01:50:02;;;;;;;2.20;1.63;;;10.90;90.80;;;;;;5033842;28;20445;-47
2021/04/11 01:52:35;;;;;;;2.27;2.07;;;10.90;91.00;;;;;;5042298;28;20490;-48
2021/04/11 01:55:02;;;;;;;3.00;2.30;;;10.80;91.20;;;;;;5050098;28;20832;-48
2021/04/11 01:57:32;;;;;;;3.23;2.40;;;10.90;91.30;;;;;;5051864;28;20513;-48
2021/04/11 02:00:11;;;;;;;2.63;2.10;;;11.00;91.20;;;;;;5049861;28;20875;-48
2021/04/11 02:02:38;;;;;;;2.87;2.00;;;11.00;91.10;;;;;;5051274;28;20463;-48
2021/04/11 02:05:08;;;;;;;3.43;2.00;;;10.90;91.20;;;;;;5051310;28;20451;-47
2021/04/11 02:07:36;;;;;;;2.33;2.13;;;11.10;91.20;;;;;;5049911;28;20504;-48
2021/04/11 02:10:06;;;;;;;1.80;1.60;;;10.80;91.40;;;;;;5051791;28;20460;-48
2021/04/11 02:12:32;;;;;;;3.27;1.83;;;10.70;91.70;;;;;;5051592;28;20491;-48
2021/04/11 02:15:00;;;;;;;2.40;1.83;;;10.70;91.70;;;;;;5051038;28;20450;-48
2021/04/11 02:17:26;;;;;;;2.00;1.80;;;10.90;91.80;;;;;;5051719;28;20454;-48
2021/04/11 02:19:53;;;;;;;1.70;1.60;;;10.90;91.50;;;;;;5037526;28;20448;-48
2021/04/11 02:22:24;;;;;;;2.40;1.80;;;10.90;91.70;;;;;;5040028;28;20459;-48
2021/04/11 02:24:51;;;;;;;1.60;1.50;;;10.80;91.70;;;;;;5050961;28;20455;-48
2021/04/11 02:27:21;;;;;;;1.70;1.60;;;10.70;91.80;;;;;;5051502;28;20447;-48
2021/04/11 02:29:48;;;;;;;2.70;1.70;;;10.80;92.00;;;;;;5051251;28;20486;-48
2021/04/11 02:32:17;;;;;;;4.27;1.60;;;10.80;91.80;;;;;;5045659;28;20495;-48
2021/04/11 02:34:44;;;;;;;2.40;1.73;;;10.60;92.10;;;;;;5032634;28;20452;-48
2021/04/11 02:37:17;;;;;;;4.00;1.90;;;10.40;92.30;;;;;;5031431;28;20457;-48
2021/04/11 02:39:44;;;;;;;1.70;1.60;;;10.40;92.60;;;;;;5048724;28;21031;-48
2021/04/11 02:42:15;;;;;;;2.17;1.70;;;10.40;92.50;;;;;;5051054;28;20463;-48
2021/04/11 02:44:44;;;;;;;2.10;2.00;;;10.40;93.10;;;;;;5050229;28;20452;-48
2021/04/11 02:47:13;;;;;;;3.60;2.10;;;10.10;93.40;;;;;;5037446;28;20484;-48
2021/04/11 02:49:43;;;;;;;2.40;2.03;;;10.20;93.50;;;;;;5036338;28;20503;-48
2021/04/11 02:52:18;;;;;;;1.90;1.80;;;10.20;94.00;;;;;;5039881;28;20869;-48
2021/04/11 02:54:46;;;;;;;1.93;1.77;;;10.30;94.10;;;;;;5053661;28;20909;-48
2021/04/11 02:57:13;;;;;;;1.80;1.67;;;10.30;94.00;;;;;;5054709;28;20443;-48
2021/04/11 02:59:39;;;;;;;1.90;1.70;;;10.10;94.00;;;;;;5052443;28;20444;-48
2021/04/11 03:02:06;;;;;;;3.67;1.80;;;9.80;94.70;;;;;;5054516;28;20459;-47
2021/04/11 03:04:33;;;;;;;1.90;1.67;;;9.80;95.40;;;;;;5053278;28;20822;-48
2021/04/11 03:07:05;;;;;;;1.70;1.50;;;9.80;95.50;;;;;;5054422;28;21001;-47
2021/04/11 03:09:36;;;;;;;3.03;1.70;;;9.70;95.60;;;;;;5052871;28;20454;-48
2021/04/11 03:12:05;;;;;;;2.77;1.87;;;9.80;95.70;;;;;;5050348;28;20491;-47
2021/04/11 03:14:36;;;;;;;2.20;1.83;;;10.00;95.10;;;;;;5052908;28;20793;-48
2021/04/11 03:17:04;;;;;;;1.70;1.60;;;10.10;94.60;;;;;;5054365;28;20440;-48
2021/04/11 03:19:37;;;;;;;2.20;2.00;;;9.90;95.70;;;;;;5054076;28;20447;-48
2021/04/11 03:22:05;;;;;;;1.80;1.70;;;9.60;96.20;;;;;;5050743;28;20882;-48
2021/04/11 03:24:31;;;;;;;2.13;1.93;;;9.70;96.60;;;;;;5054384;28;20477;-48
2021/04/11 03:27:04;;;;;;;2.13;1.90;;;9.60;96.40;;;;;;5054309;28;20464;-48
2021/04/11 03:29:36;;;;;;;2.37;2.10;;;9.80;96.10;;;;;;5048542;28;20463;-47
2021/04/11 03:32:08;;;;;;;2.90;2.07;;;9.70;96.20;;;;;;5052963;28;20922;-47
2021/04/11 03:34:37;;;;;;;2.90;1.90;;;9.50;96.90;;;;;;5052863;28;20462;-47
2021/04/11 03:37:08;;;;;;;1.77;1.67;;;9.40;97.20;;;;;;5054156;28;20455;-48
2021/04/11 03:39:36;;;;;;;1.80;1.70;;;9.50;97.40;;;;;;5052470;28;20451;-48
2021/04/11 03:42:06;;;;;;;1.90;1.70;;;9.70;97.10;;;;;;5053771;28;20501;-48
2021/04/11 03:44:32;;;;;;;2.00;1.80;;;9.80;96.80;;;;;;5053723;28;20457;-48
2021/04/11 03:47:04;;;;;;;3.10;1.90;;;9.50;97.70;;;;;;5052659;28;20482;-48
2021/04/11 03:49:36;;;;;;;3.87;2.30;;;9.30;97.60;;;;;;5050926;28;20453;-48
2021/04/11 03:52:11;;;;;;;2.67;1.80;;;9.40;97.60;;;;;;5053593;28;20483;-48
2021/04/11 03:54:41;;;;;;;3.20;1.70;;;9.50;97.50;;;;;;5053642;28;20446;-48
2021/04/11 03:57:13;;;;;;;2.30;1.93;;;9.70;97.20;;;;;;5048872;28;20451;-47
2021/04/11 03:59:43;;;;;;;1.63;1.50;;;9.70;96.90;;;;;;5053317;28;20947;-48
2021/04/11 04:02:11;;;;;;;2.47;1.80;;;9.90;96.60;;;;;;5052396;28;20466;-47
2021/04/11 04:04:40;;;;;;;2.60;2.10;;;9.70;97.40;;;;;;5052144;28;20454;-48
2021/04/11 04:07:14;;;;;;;2.20;1.97;;;9.70;97.20;;;;;;5051444;28;20484;-48
2021/04/11 04:09:42;;;;;;;3.37;2.50;;;9.50;97.90;;;;;;5050420;28;20455;-48
2021/04/11 04:12:23;;;;;;;4.77;2.70;;;9.30;98.50;;;;;;5053345;28;20483;-48
2021/04/11 04:15:03;;;;;;;5.87;3.17;;;9.40;98.80;;;;;;5052701;28;20462;-47
2021/04/11 04:17:38;;;;;;;3.70;2.97;;;9.50;98.60;;;;;;5053092;28;20450;-48
2021/04/11 04:20:11;;;;;;;4.30;2.80;;;9.50;98.90;;;;;;5048321;28;20463;-48
2021/04/11 04:23:00;;;;;;;5.43;2.70;;;9.60;98.70;;;;;;5048290;28;20476;-47
2021/04/11 04:25:52;;;;;;;4.83;3.00;;;9.70;98.70;;;;;;5052245;28;20439;-47
2021/04/11 04:28:31;;;;;;;3.37;2.13;;;9.90;98.20;;;;;;5050059;28;20442;-48
2021/04/11 04:31:02;;;;;;;3.10;2.30;;;9.50;98.40;;;;;;5050214;28;20483;-48
2021/04/11 04:33:44;;;;;;;3.50;2.53;;;9.40;99.30;;;;;;5051982;28;20471;-48
2021/04/11 04:36:19;;;;;;;3.67;2.70;;;9.50;99.40;;;;;;5047893;28;20844;-48
2021/04/11 04:38:54;;;;;;;2.67;2.00;;;9.60;99.20;;;;;;5046256;28;20456;-48
2021/04/11 04:41:33;;;;;;;2.17;1.50;;;9.70;99.20;;;;;;5052812;28;20814;-48
2021/04/11 04:44:05;;;;;;;4.37;2.67;;;9.70;99.40;;;;;;5049695;28;20550;-48
2021/04/11 04:46:38;;;;;;;2.53;2.33;;;9.40;99.10;;;;;;5051889;28;20878;-47
2021/04/11 04:49:13;;;;;;;3.10;2.70;;;9.30;99.80;;;;;;5052207;28;20445;-48
2021/04/11 04:51:44;;;;;;;3.07;2.20;;;9.20;99.90;;;;;;5049354;28;20516;-48
2021/04/11 04:54:20;;;;;;;3.93;2.37;;;9.40;99.50;;;;;;5048384;28;20489;-48
2021/04/11 04:57:01;;;;;;;2.57;2.10;;;9.60;99.10;;;;;;5052450;28;20446;-47
2021/04/11 04:59:36;;;;;;;2.50;1.70;;;9.70;99.10;;;;;;5052632;28;20447;-48
2021/04/11 05:02:06;;;;;;;3.00;2.40;;;9.70;99.30;;;;;;5050723;28;20463;-48
2021/04/11 05:04:35;;;;;;;3.10;2.40;;;9.60;99.90;;;;;;5052622;28;20493;-48
2021/04/11 05:07:05;;;;;;;5.10;2.33;;;9.40;99.30;;;;;;5052257;28;20454;-48
2021/04/11 05:09:39;;;;;;;3.47;2.00;;;9.20;99.90;;;;;;5051488;28;20942;-48
2021/04/11 05:12:10;;;;;;;2.70;2.17;;;9.20;99.80;;;;;;5051891;28;21141;-48
2021/04/11 05:14:41;;;;;;;2.13;1.80;;;9.30;99.90;;;;;;5053599;28;20451;-48
2021/04/11 05:17:13;;;;;;;1.90;1.80;;;9.30;99.90;;;;;;5054316;28;20447;-48
2021/04/11 05:19:43;;;;;;;2.93;1.57;;;9.40;99.50;;;;;;5051700;28;20474;-48
2021/04/11 05:22:16;;;;;;;2.03;1.73;;;9.40;99.30;;;;;;5050310;28;20467;-48
2021/04/11 05:24:46;;;;;;;2.50;1.87;;;9.60;99.50;;;;;;5058668;28;20856;-48
2021/04/11 05:27:19;;;;;;;1.63;1.53;;;9.60;99.80;;;;;;5052154;28;20952;-48
2021/04/11 05:29:49;;;;;;;1.67;1.50;;;9.80;99.10;;;;;;5050322;28;20979;-48
2021/04/11 05:32:16;;;;;;;1.50;1.40;;;9.50;99.60;;;;;;5051697;28;20492;-48
2021/04/11 05:34:43;;;;;;;1.70;1.57;;;9.40;99.90;;;;;;5051739;28;20955;-48
2021/04/11 05:37:38;;;;;;;1.63;1.20;;;9.50;99.50;;;;;;5047558;28;20453;-48
2021/04/11 05:40:13;;;;;;;2.50;2.00;;;9.50;99.90;;;;;;5046630;28;20511;-48
2021/04/11 05:42:53;;;;;;;3.57;2.27;;;9.40;99.90;;;;;;5051510;28;20537;-48
2021/04/11 05:45:25;;;;;;;2.40;2.20;;;9.50;99.90;;;;;;5049394;28;21117;-47
2021/04/11 05:48:02;;;;;;;3.50;2.20;;;9.50;99.90;;;;;;5051196;28;20453;-47
2021/04/11 05:50:34;;;;;;;6.33;3.90;;;9.60;99.90;;;;;;5048092;28;20524;-48
2021/04/11 05:53:04;;;;;;;2.73;2.03;;;9.80;99.90;;;;;;5049871;28;20488;-48
2021/04/11 05:55:48;;;;;;;3.30;1.70;;;9.80;99.90;;;;;;5051255;28;20450;-48
2021/04/11 05:58:18;;;;;;;2.37;1.70;;;10.00;99.20;;;;;;5049142;28;20449;-47
2021/04/11 06:00:51;;;;;;;1.50;1.20;;;10.00;99.00;;;;;;5051088;28;20500;-47
2021/04/11 06:03:22;;;;;;;1.60;1.50;;;9.90;99.70;;;;;;5049391;28;20472;-48
2021/04/11 06:06:00;;;;;;;1.70;1.53;;;10.00;98.80;;;;;;5045287;28;20463;-48
2021/04/11 06:08:32;;;;;;;2.60;1.40;;;10.10;99.20;;;;;;5050286;28;20875;-48
2021/04/11 06:11:02;;;;;;;4.20;2.23;;;10.00;99.70;;;;;;5049630;28;21011;-48
2021/04/11 06:13:37;;;;;;;2.93;2.10;;;9.70;99.90;;;;;;5051440;28;20477;-48
2021/04/11 06:16:08;;;;;;;3.10;2.20;;;9.80;99.90;;;;;;5051673;28;20454;-50
2021/04/11 06:18:35;;;;;;;3.13;1.97;;;10.00;99.90;;;;;;5048566;28;20450;-50
2021/04/11 06:21:11;;;;;;;2.13;1.93;;;10.10;99.90;;;;;;5050802;28;20451;-50
2021/04/11 06:23:44;;;;;;;1.97;1.80;;;10.20;99.90;;;;;;5047653;28;20508;-50
2021/04/11 06:26:20;;;;;;;2.33;2.13;;;10.30;99.90;;;;;;5052403;28;20455;-50
2021/04/11 06:28:54;;;;;;;2.80;1.90;;;10.50;99.90;;;;;;5058573;28;20447;-50
2021/04/11 06:31:24;;;;;;;2.20;2.00;;;10.70;99.80;;;;;;5049979;28;20482;-50
2021/04/11 06:33:55;;;;;;;2.10;1.90;;;10.90;99.40;;;;;;5058632;28;20455;-50
2021/04/11 06:36:25;;;;;;;2.70;2.33;;;10.90;99.50;;;;;;5047986;28;20475;-50
2021/04/11 06:38:55;;;;;;;2.87;2.10;;;11.00;99.90;;;;;;5049654;28;20451;-48
2021/04/11 06:42:00;;;;;;;2.87;2.03;;;11.30;99.70;;;;;;5046463;28;20464;-48
2021/04/11 06:44:38;;;;;;;3.60;1.87;;;11.60;98.80;;;;;;5034198;28;20470;-48
2021/04/11 06:47:24;;;;;;;1.60;1.50;;;11.80;98.70;;;;;;5059558;28;20522;-48
2021/04/11 06:50:14;;;;;;;2.10;1.63;;;11.90;98.50;;;;;;5063882;28;20452;-48
2021/04/11 06:52:51;;;;;;;1.80;1.70;;;12.30;98.00;;;;;;5045970;28;20487;-48
2021/04/11 06:55:47;;;;;;;1.70;1.60;;;12.30;96.70;;;;;;5047129;28;20844;-48
2021/04/11 06:58:22;;;;;;;2.60;1.97;;;12.00;97.50;;;;;;5048363;28;20937;-48
2021/04/11 07:01:08;;;;;;;2.03;1.67;;;12.20;97.50;;;;;;5051010;28;20447;-48
2021/04/11 07:04:08;;;;;;;3.00;2.00;;;12.10;96.90;;;;;;5029693;28;20452;-48
2021/04/11 07:07:15;;;;;;;1.90;1.70;;;11.80;97.90;;;;;;5037275;28;20448;-48
2021/04/11 07:10:00;;;;;;;2.07;1.93;;;11.80;98.70;;;;;;5049548;28;20456;-48
2021/04/11 07:13:09;;;;;;;4.10;2.20;;;12.10;97.60;;;;;;5050365;28;20491;-48
2021/04/11 07:15:57;;;;;;;2.10;1.90;;;12.60;96.40;;;;;;5050372;28;20483;-48
2021/04/11 07:19:03;;;;;;;5.13;2.20;;;12.70;96.50;;;;;;5051184;28;20829;-48
2021/04/11 07:22:14;;;;;;;3.57;2.03;;;12.90;95.90;;;;;;4976616;28;20475;-49
2021/04/11 07:25:14;;;;;;;2.73;2.30;;;12.80;95.70;;;;;;5029976;28;20501;-49
2021/04/11 07:28:02;;;;;;;1.90;1.80;;;13.00;96.40;;;;;;5030729;28;20962;-49
2021/04/11 07:30:40;;;;;;;3.28;1.70;;;13.40;95.50;;;;;;5033240;28;20535;-49
2021/04/11 07:33:43;;;;;;;2.13;1.80;;;13.60;95.10;;;;;;5090487;22;20259;-50
2021/04/11 07:36:33;;;;;;;2.27;1.63;;;13.90;95.20;;;;;;5056765;28;20447;-50
2021/04/11 07:39:14;;;;;;;1.90;1.50;;;14.00;95.50;;;;;;5064626;28;20503;-50
2021/04/11 07:41:56;;;;;;;1.97;1.60;;;13.60;96.60;;;;;;5071124;28;20461;-50
2021/04/11 07:44:36;;;;;;;3.70;2.17;;;13.90;95.40;;;;;;5053485;28;20539;-50
2021/04/11 07:47:17;;;;;;;2.57;1.77;;;14.50;95.60;;;;;;5052674;28;20815;-50
2021/04/11 07:50:22;;;;;;;3.60;2.30;;;15.30;93.30;;;;;;5052929;28;20447;-50
2021/04/11 07:53:16;;;;;;;2.47;2.27;;;15.80;92.90;;;;;;5052705;28;20491;-50
2021/04/11 07:55:56;;;;;;;2.00;1.80;;;15.40;92.40;;;;;;5052971;28;20447;-50
2021/04/11 07:58:54;;;;;;;3.37;2.80;;;15.30;93.50;;;;;;5052497;28;20999;-51
2021/04/11 08:01:48;;;;;;;2.50;2.30;;;14.80;95.60;;;;;;5040303;28;20458;-49
2021/04/11 08:04:28;;;;;;;4.30;2.87;;;14.60;96.60;;;;;;5052132;28;20881;-50
2021/04/11 08:07:18;;;;;;;3.90;3.50;;;14.50;96.90;;;;;;5048712;28;20452;-50
2021/04/11 08:09:50;;;;;;;3.70;3.27;;;14.10;97.90;;;;;;5040759;28;20448;-50
2021/04/11 08:12:58;;;;;;;3.50;3.20;;;13.90;97.70;;;;;;5050727;28;20499;-50
2021/04/11 08:15:30;;;;;;;3.67;3.33;;;14.10;98.40;;;;;;5052457;28;20451;-50
2021/04/11 08:18:24;;;;;;;3.47;3.17;;;14.20;98.20;;;;;;5052296;28;20853;-50
2021/04/11 08:21:23;;;;;;;3.30;2.97;;;14.50;97.30;;;;;;5052756;28;20462;-50
2021/04/11 08:24:40;;;;;;;2.77;2.57;;;15.10;96.70;;;;;;5044931;28;20474;-51
2021/04/11 08:27:42;;;;;;;3.73;3.33;;;15.50;94.90;;;;;;5052118;28;20471;-50
2021/04/11 08:30:45;;;;;;;4.07;2.83;;;15.40;95.90;;;;;;5052199;28;20443;-50
2021/04/11 08:33:38;;;;;;;3.60;3.00;;;15.50;95.10;;;;;;5026376;28;20568;-51
2021/04/11 08:36:33;;;;;;;5.30;3.00;;;15.70;95.30;;;;;;5052104;28;20510;-51
2021/04/11 08:39:26;;;;;;;3.80;3.40;;;16.10;94.80;;;;;;5051862;28;20455;-50
2021/04/11 08:42:20;;;;;;;3.93;2.87;;;16.60;96.20;;;;;;5051628;28;20463;-51
2021/04/11 08:44:57;;;;;;;7.30;3.23;;;17.50;92.70;;;;;;5051400;28;20459;-51
2021/04/11 08:47:33;;;;;;;3.80;3.40;;;18.00;92.10;;;;;;5052257;28;20526;-50
2021/04/11 08:50:01;;;;;;;5.27;3.80;;;17.50;92.90;;;;;;5051382;28;20458;-51
2021/04/11 08:52:42;;;;;;;6.73;5.33;;;17.70;92.90;;;;;;5047291;28;20489;-51
2021/04/11 08:55:20;;;;;;;6.20;4.30;;;18.10;93.40;;;;;;5051655;28;20513;-51
2021/04/11 08:58:14;;;;;;;5.10;4.20;;;18.70;92.00;;;;;;5040033;28;21030;-51
2021/04/11 09:00:48;;;;;;;6.23;4.10;;;19.00;91.30;;;;;;5029931;28;20456;-51
2021/04/11 09:03:38;;;;;;;5.53;3.90;;;19.40;90.00;;;;;;5035146;28;20529;-51
2021/04/11 09:06:11;;;;;;;4.80;3.80;;;19.40;90.20;;;;;;5051421;28;20448;-51
2021/04/11 09:08:50;;;;;;;4.03;3.60;;;19.30;90.50;;;;;;5044582;28;20464;-51
2021/04/11 09:11:28;;;;;;;3.47;3.17;;;19.50;87.40;;;;;;5045964;28;20870;-51
2021/04/11 09:14:21;;;;;;;3.33;3.03;;;19.70;86.30;;;;;;5050436;28;20458;-51
2021/04/11 09:17:15;;;;;;;3.93;3.40;;;20.30;86.00;;;;;;5050181;28;20463;-51
2021/04/11 09:19:52;;;;;;;3.47;3.10;;;19.20;88.20;;;;;;5049171;28;20965;-52
2021/04/11 09:22:53;;;;;;;3.47;3.27;;;19.20;87.60;;;;;;5048042;28;20976;-52
2021/04/11 09:25:22;;;;;;;5.83;2.80;;;19.50;85.20;;;;;;5032436;28;20835;-52
2021/04/11 09:28:30;;;;;;;4.33;3.47;;;19.70;84.10;;;;;;5050945;28;20870;-52
2021/04/11 09:31:22;;;;;;;3.97;3.57;;;20.20;82.40;;;;;;5047793;28;20463;-52
2021/04/11 09:34:20;;;;;;;4.00;3.60;;;20.40;81.20;;;;;;5045571;28;20478;-51
2021/04/11 09:36:52;;;;;;;4.07;3.67;;;20.50;82.20;;;;;;5047054;28;20495;-52
2021/04/11 09:39:43;;;;;;;4.03;3.40;;;21.10;79.70;;;;;;5050371;28;20486;-52
2021/04/11 09:42:39;;;;;;;3.93;3.60;;;20.80;79.10;;;;;;5047408;28;20555;-51
2021/04/11 09:45:23;;;;;;;3.53;3.23;;;20.70;79.10;;;;;;5047933;28;20483;-52
2021/04/11 09:48:08;;;;;;;3.60;3.27;;;20.50;81.50;;;;;;5046489;28;20453;-52
2021/04/11 09:50:48;;;;;;;3.60;3.30;;;20.20;77.00;;;;;;5050477;28;20444;-51
2021/04/11 09:53:46;;;;;;;3.07;2.77;;;20.50;76.60;;;;;;5049889;28;20575;-52
2021/04/11 09:56:26;;;;;;;4.60;3.30;;;21.20;77.50;;;;;;5048603;28;20448;-52
2021/04/11 09:59:21;;;;;;;3.13;2.80;;;21.50;75.40;;;;;;5050260;28;20450;-52
2021/04/11 10:01:54;;;;;;;3.13;2.83;;;21.50;73.60;;;;;;5048020;28;20536;-52
2021/04/11 10:04:35;;;;;;;4.63;2.53;;;21.60;73.20;;;;;;5045048;28;20908;-52
2021/04/11 10:07:25;;;;;;;2.87;2.60;;;21.70;73.50;;;;;;5063942;28;20446;-52
2021/04/11 10:10:18;;;;;;;2.80;2.60;;;22.30;74.10;;;;;;5050317;28;20452;-52
2021/04/11 10:13:15;;;;;;;3.97;2.70;;;22.50;74.50;;;;;;5031988;28;20499;-52
2021/04/11 10:15:51;;;;;;;3.40;3.10;;;22.90;71.00;;;;;;5043339;28;20460;-52
2021/04/11 10:18:44;;;;;;;4.17;3.10;;;22.10;70.90;;;;;;5040235;28;20458;-52
2021/04/11 10:21:20;;;;;;;3.67;3.20;;;22.00;71.80;;;;;;5047059;28;20452;-51
2021/04/11 10:24:02;;;;;;;2.80;2.60;;;22.40;75.40;;;;;;5049250;28;20886;-52
2021/04/11 10:26:37;;;;;;;2.70;2.50;;;22.00;71.10;;;;;;5050281;28;20450;-52
2021/04/11 10:29:10;;;;;;;3.90;2.50;;;21.20;72.20;;;;;;5049511;28;20968;-52
2021/04/11 10:31:42;;;;;;;2.47;2.23;;;20.60;78.50;;;;;;5048080;28;20484;-51
2021/04/11 10:34:16;;;;;;;2.90;2.60;;;20.60;73.70;;;;;;5048120;28;20501;-51
2021/04/11 10:36:50;;;;;;;2.63;2.43;;;20.70;74.00;;;;;;5050245;28;20447;-51
2021/04/11 10:39:24;;;;;;;3.30;2.70;;;20.80;73.20;;;;;;5050341;28;20462;-51
2021/04/11 10:41:56;;;;;;;2.67;2.47;;;21.00;73.50;;;;;;5049971;28;21014;-51
2021/04/11 10:44:58;;;;;;;2.83;2.20;;;20.50;75.00;;;;;;5049581;28;20452;-51
2021/04/11 10:47:46;;;;;;;2.50;2.30;;;21.10;72.90;;;;;;5049726;28;20455;-51
2021/04/11 10:50:20;;;;;;;3.37;2.03;;;21.50;78.00;;;;;;5050142;28;20444;-51
2021/04/11 10:53:07;;;;;;;2.97;2.27;;;21.50;72.10;;;;;;5050500;28;20483;-51
2021/04/11 10:55:56;;;;;;;2.60;2.30;;;20.80;73.30;;;;;;5050331;28;20566;-51
2021/04/11 10:58:44;;;;;;;2.63;2.10;;;20.40;74.00;;;;;;5039973;28;20456;-51
2021/04/11 11:01:38;;;;;;;2.40;2.20;;;20.20;74.20;;;;;;5044737;28;20464;-51
2021/04/11 11:04:29;;;;;;;5.10;2.50;;;19.70;77.30;;;;;;5041450;28;20474;-51
2021/04/11 11:07:14;;;;;;;1.80;1.70;;;19.80;74.80;;;;;;5051166;28;20452;-51
2021/04/11 11:09:46;;;;;;;2.20;2.00;;;19.50;76.00;;;;;;5053956;28;20888;-51
2021/04/11 11:12:30;;;;;;;2.75;1.98;;;18.70;80.80;;;;;;5048293;28;20448;-51
2021/04/11 11:15:19;;;;;;;2.00;1.80;;;18.70;79.30;;;;;;5044011;28;20475;-51
2021/04/11 11:18:00;;;;;;;1.80;1.70;;;19.20;77.60;;;;;;5052545;28;20502;-52
2021/04/11 11:20:31;;;;;;;1.60;1.50;;;19.00;80.40;;;;;;5052757;28;20966;-51
2021/04/11 11:23:25;;;;;;;2.53;1.90;;;19.10;77.80;;;;;;5050374;28;20529;-51
2021/04/11 11:26:33;;;;;;;2.70;1.80;;;19.10;77.20;;;;;;5050199;28;20881;-52
2021/04/11 11:29:24;;;;;;;2.03;1.70;;;19.40;77.30;;;;;;5036773;28;20516;-51
2021/04/11 11:32:01;;;;;;;2.03;1.83;;;19.80;77.60;;;;;;5053512;28;20487;-51
2021/04/11 11:34:46;;;;;;;2.43;1.90;;;20.00;75.90;;;;;;5052555;28;20490;-51
2021/04/11 11:37:21;;;;;;;2.43;2.00;;;19.60;78.30;;;;;;5034034;28;20578;-51
2021/04/11 11:39:52;;;;;;;1.73;1.63;;;19.70;80.80;;;;;;5038625;28;20463;-52
2021/04/11 11:42:28;;;;;;;1.90;1.80;;;19.50;81.20;;;;;;5044588;28;20469;-51
2021/04/11 11:45:06;;;;;;;2.43;2.00;;;19.40;76.80;;;;;;5045623;28;20455;-51
2021/04/11 11:47:43;;;;;;;1.83;1.73;;;18.90;80.40;;;;;;5053308;28;20458;-52
2021/04/11 11:50:17;;;;;;;1.70;1.60;;;19.20;77.10;;;;;;5052980;28;20884;-51
2021/04/11 11:52:49;;;;;;;4.00;1.77;;;18.80;76.10;;;;;;5053485;28;21000;-51
2021/04/11 11:55:22;;;;;;;2.47;1.87;;;18.70;79.90;;;;;;5052850;28;20456;-51
2021/04/11 11:57:57;;;;;;;1.97;1.70;;;18.70;78.90;;;;;;5052936;28;20522;-51
2021/04/11 12:00:28;;;;;;;2.07;1.87;;;19.00;79.90;;;;;;5052855;28;20492;-51
2021/04/11 12:03:09;;;;;;;1.90;1.80;;;19.40;76.70;;;;;;5053283;28;20463;-51
2021/04/11 12:05:42;;;;;;;1.93;1.40;;;19.80;75.50;;;;;;5049333;28;20534;-51
2021/04/11 12:08:17;;;;;;;3.97;1.50;;;20.00;80.90;;;;;;5052460;28;20498;-51
2021/04/11 12:10:50;;;;;;;2.17;1.97;;;19.90;77.10;;;;;;5052590;28;20847;-51
2021/04/11 12:13:29;;;;;;;2.20;1.40;;;19.60;74.70;;;;;;5052928;28;20491;-51
2021/04/11 12:16:01;;;;;;;1.70;1.60;;;19.70;80.40;;;;;;5051636;28;20956;-52
2021/04/11 12:18:31;;;;;;;2.50;1.70;;;19.80;77.50;;;;;;5051011;28;20458;-52
2021/04/11 12:21:07;;;;;;;1.73;1.23;;;20.00;84.90;;;;;;5052503;28;20463;-52
2021/04/11 12:23:39;;;;;;;1.60;1.50;;;20.10;78.10;;;;;;5052776;28;20468;-52
2021/04/11 12:26:08;;;;;;;1.30;1.20;;;20.30;79.40;;;;;;5052461;28;20444;-51
2021/04/11 12:28:36;;;;;;;1.90;1.50;;;20.50;74.10;;;;;;5051926;28;20987;-52
2021/04/11 12:31:17;;;;;;;2.23;1.10;;;20.40;75.30;;;;;;5052353;28;20523;-51
2021/04/11 12:33:50;;;;;;;1.33;1.23;;;20.60;74.60;;;;;;5052579;28;20487;-51
2021/04/11 12:36:23;;;;;;;1.47;1.37;;;20.30;75.80;;;;;;5050375;28;20455;-53
2021/04/11 12:38:54;;;;;;;1.33;1.10;;;20.60;78.30;;;;;;5052730;28;21012;-52
2021/04/11 12:41:26;;;;;;;1.47;1.10;;;20.80;75.50;;;;;;5051694;28;20454;-52
2021/04/11 12:44:03;;;;;;;1.27;1.10;;;20.90;78.30;;;;;;5051883;28;20448;-52
2021/04/11 12:46:37;;;;;;;0.90;0.70;;;21.00;71.60;;;;;;5046685;28;20447;-51
2021/04/11 12:49:11;;;;;;;1.03;0.97;;;20.90;68.20;;;;;;5052390;28;20451;-51
2021/04/11 12:51:44;;;;;;;0.83;0.80;;;20.90;69.00;;;;;;5051854;28;20451;-52
2021/04/11 12:54:18;;;;;;;1.50;0.90;;;20.70;68.00;;;;;;5051902;28;20481;-52
2021/04/11 12:56:53;;;;;;;1.20;1.10;;;20.50;67.60;;;;;;5046084;28;20460;-52
2021/04/11 12:59:22;;;;;;;1.13;1.03;;;20.60;69.40;;;;;;5051693;28;20459;-52
2021/04/11 13:01:52;;;;;;;0.80;0.70;;;20.80;74.40;;;;;;5051757;28;20470;-51
2021/04/11 13:04:29;;;;;;;0.80;0.50;;;20.80;75.40;;;;;;5051906;28;20483;-52
2021/04/11 13:07:05;;;;;;;0.70;0.60;;;20.80;69.70;;;;;;5052136;28;20450;-52
2021/04/11 13:09:52;;;;;;;0.60;0.50;;;20.90;71.30;;;;;;5051996;28;20609;-52
2021/04/11 13:12:26;;;;;;;0.60;0.50;;;21.00;70.80;;;;;;5051819;28;20487;-51
2021/04/11 13:15:01;;;;;;;0.60;0.40;;;21.10;71.00;;;;;;5051609;28;20941;-51
2021/04/11 13:17:36;;;;;;;1.60;0.50;;;21.10;64.60;;;;;;5051239;28;21022;-51
2021/04/11 13:20:10;;;;;;;0.60;0.40;;;21.00;63.30;;;;;;5051807;28;20443;-51
2021/04/11 13:22:45;;;;;;;0.90;0.50;;;21.00;68.10;;;;;;5051474;28;20478;-52
2021/04/11 13:25:18;;;;;;;0.60;0.50;;;21.10;66.60;;;;;;5050387;28;20447;-52
2021/04/11 13:27:47;;;;;;;2.43;0.50;;;21.20;63.50;;;;;;5051444;28;20448;-51
2021/04/11 13:30:20;;;;;;;1.77;0.40;;;21.20;63.70;;;;;;5051175;28;20497;-51
2021/04/11 13:32:55;;;;;;;0.70;0.40;;;21.10;63.10;;;;;;5051279;28;20491;-52
2021/04/11 13:35:25;;;;;;;0.70;0.40;;;21.00;62.50;;;;;;5050285;28;20455;-51
2021/04/11 13:37:57;;;;;;;1.03;0.70;;;21.00;62.30;;;;;;5050625;28;20505;-52